Time;durP1;ratioP1;P1;durP2;ratioP2;P2;SDS_P1;SDS_P2;PMS_P1;PMS_P2;Temp;Humidity;BMP_temperature;BMP_pressure;BME280_temperature;BME280_humidity;BME280_pressure;Samples;Min_cycle;Max_cycle;Signal;HPM_P1;HPM_P2
2021/01/31 00:00:09;;;;;;;12.75;5.82;;;;;4.80;100272.00;;;;5046916;28;20212;-76
2021/01/31 00:02:36;;;;;;;12.20;6.15;;;;;4.70;100266.00;;;;5049631;28;20657;-76
2021/01/31 00:05:02;;;;;;;13.70;6.68;;;;;4.70;100266.00;;;;5042260;28;20752;-76
2021/01/31 00:07:31;;;;;;;12.52;6.45;;;;;4.70;100271.00;;;;5030276;28;20570;-76
2021/01/31 00:09:58;;;;;;;14.75;6.57;;;;;4.70;100274.00;;;;5031530;28;20203;-76
2021/01/31 00:12:25;;;;;;;15.40;7.35;;;;;4.60;100273.00;;;;5029513;28;20207;-76
2021/01/31 00:14:52;;;;;;;12.30;6.28;;;;;4.60;100281.00;;;;5029603;28;20235;-76
2021/01/31 00:17:18;;;;;;;10.50;5.63;;;;;4.60;100271.00;;;;5018170;28;20702;-75
2021/01/31 00:19:45;;;;;;;14.65;7.05;;;;;4.60;100271.00;;;;5030502;28;20199;-76
2021/01/31 00:22:12;;;;;;;11.57;6.07;;;;;4.60;100276.00;;;;5030454;28;20200;-76
2021/01/31 00:24:39;;;;;;;13.38;6.18;;;;;4.60;100282.00;;;;5047874;28;20203;-76
2021/01/31 00:27:06;;;;;;;13.50;6.78;;;;;4.60;100281.00;;;;5049256;28;20206;-76
2021/01/31 00:29:33;;;;;;;12.73;5.95;;;;;4.50;100281.00;;;;5051438;28;20207;-76
2021/01/31 00:32:00;;;;;;;13.02;6.97;;;;;4.60;100287.00;;;;5048899;28;20579;-76
2021/01/31 00:34:27;;;;;;;16.17;6.95;;;;;4.50;100292.00;;;;5033977;28;20192;-76
2021/01/31 00:36:54;;;;;;;11.80;6.35;;;;;4.50;100291.00;;;;5030500;28;20204;-76
2021/01/31 00:39:20;;;;;;;12.40;6.07;;;;;4.50;100292.00;;;;5043296;28;20253;-76
2021/01/31 00:41:47;;;;;;;12.35;6.38;;;;;4.50;100293.00;;;;5036055;28;20690;-76
2021/01/31 00:44:14;;;;;;;15.38;7.22;;;;;4.50;100296.00;;;;5029860;28;20204;-76
2021/01/31 00:46:42;;;;;;;13.30;6.47;;;;;4.50;100298.00;;;;5030440;28;20207;-77
2021/01/31 00:49:10;;;;;;;13.68;5.95;;;;;4.50;100306.00;;;;5042443;28;20195;-76
2021/01/31 00:51:37;;;;;;;15.73;6.85;;;;;4.50;100305.00;;;;5039828;28;20211;-76
2021/01/31 00:54:04;;;;;;;13.75;6.50;;;;;4.50;100298.00;;;;5032773;28;20240;-76
2021/01/31 00:56:31;;;;;;;13.52;6.60;;;;;4.50;100312.00;;;;5031726;28;20227;-77
2021/01/31 00:58:57;;;;;;;11.65;6.35;;;;;4.40;100304.00;;;;5030303;28;20196;-76
2021/01/31 01:01:24;;;;;;;13.63;6.95;;;;;4.40;100302.00;;;;5041482;28;20575;-76
2021/01/31 01:03:52;;;;;;;13.60;7.15;;;;;4.40;100304.00;;;;5038852;28;20254;-76
2021/01/31 01:06:18;;;;;;;13.50;6.75;;;;;4.40;100306.00;;;;5041406;28;20885;-76
2021/01/31 01:08:45;;;;;;;14.27;7.32;;;;;4.40;100309.00;;;;5034104;28;20208;-76
2021/01/31 01:11:12;;;;;;;12.20;5.78;;;;;4.40;100312.00;;;;5031248;28;20203;-76
2021/01/31 01:13:38;;;;;;;13.43;6.50;;;;;4.40;100316.00;;;;5030010;28;20290;-76
2021/01/31 01:16:05;;;;;;;12.57;5.85;;;;;4.30;100306.00;;;;5027514;28;20697;-76
2021/01/31 01:18:32;;;;;;;12.45;6.13;;;;;4.30;100313.00;;;;5030238;28;20192;-76
2021/01/31 01:21:00;;;;;;;11.73;6.00;;;;;4.30;100316.00;;;;5038704;28;20231;-76
2021/01/31 01:23:27;;;;;;;12.70;6.20;;;;;4.30;100313.00;;;;5038947;28;20208;-76
2021/01/31 01:25:53;;;;;;;11.15;6.00;;;;;4.30;100326.00;;;;5031665;28;21028;-76
2021/01/31 01:28:20;;;;;;;12.85;6.50;;;;;4.30;100335.00;;;;5029926;28;20208;-76
2021/01/31 01:30:47;;;;;;;12.63;7.03;;;;;4.30;100334.00;;;;5030055;28;20231;-76
2021/01/31 01:33:13;;;;;;;12.55;6.60;;;;;4.20;100326.00;;;;5036330;28;20191;-76
2021/01/31 01:35:40;;;;;;;10.60;5.80;;;;;4.20;100332.00;;;;5029929;28;20228;-76
2021/01/31 01:38:08;;;;;;;13.48;6.53;;;;;4.20;100330.00;;;;5031029;28;20197;-76
2021/01/31 01:40:37;;;;;;;12.93;6.43;;;;;4.20;100333.00;;;;5029484;28;20208;-76
2021/01/31 01:43:04;;;;;;;11.93;6.28;;;;;4.20;100330.00;;;;5009501;28;20729;-73
2021/01/31 01:45:32;;;;;;;13.52;6.63;;;;;4.20;100333.00;;;;5009497;28;20211;-74
2021/01/31 01:48:05;;;;;;;15.05;6.78;;;;;4.20;100324.00;;;;5022415;28;20597;-74
2021/01/31 01:50:36;;;;;;;13.68;6.85;;;;;4.10;100321.00;;;;5039926;28;20203;-74
2021/01/31 01:53:03;;;;;;;12.77;5.32;;;;;4.20;100326.00;;;;5021573;28;20317;-73
2021/01/31 01:55:34;;;;;;;11.27;6.40;;;;;4.10;100319.00;;;;5027563;28;20228;-74
2021/01/31 01:58:05;;;;;;;11.55;5.13;;;;;4.10;100316.00;;;;5024634;28;20213;-74
2021/01/31 02:00:33;;;;;;;11.90;6.78;;;;;4.10;100321.00;;;;5011393;28;20255;-74
2021/01/31 02:03:02;;;;;;;11.40;6.65;;;;;4.10;100310.00;;;;5028070;28;20208;-74
2021/01/31 02:05:29;;;;;;;12.65;6.82;;;;;4.10;100318.00;;;;5027983;28;20573;-73
2021/01/31 02:07:57;;;;;;;12.18;6.45;;;;;4.10;100317.00;;;;5028284;28;20203;-74
2021/01/31 02:10:25;;;;;;;12.82;6.85;;;;;4.10;100304.00;;;;5028497;28;20200;-74
2021/01/31 02:12:57;;;;;;;12.85;6.47;;;;;4.00;100314.00;;;;5028338;28;20207;-74
2021/01/31 02:15:24;;;;;;;14.27;7.32;;;;;4.00;100306.00;;;;5024369;28;20593;-74
2021/01/31 02:18:19;;;;;;;11.52;6.05;;;;;3.90;100299.00;;;;5016528;28;20662;-74
2021/01/31 02:21:06;;;;;;;12.75;6.35;;;;;3.90;100296.00;;;;5028102;28;20579;-74
2021/01/31 02:23:59;;;;;;;13.75;6.65;;;;;3.90;100293.00;;;;5027135;28;20188;-74
2021/01/31 02:26:56;;;;;;;13.65;6.40;;;;;3.90;100288.00;;;;5020838;28;20192;-74
2021/01/31 02:29:49;;;;;;;13.15;6.63;;;;;3.90;100287.00;;;;5008929;28;20554;-76
2021/01/31 02:32:43;;;;;;;13.07;6.07;;;;;3.80;100291.00;;;;5021996;28;20208;-76
2021/01/31 02:35:14;;;;;;;13.48;6.15;;;;;3.90;100288.00;;;;5021519;28;20219;-75
2021/01/31 02:37:51;;;;;;;11.05;5.45;;;;;3.80;100290.00;;;;5025700;28;20203;-76
2021/01/31 02:40:24;;;;;;;12.77;6.55;;;;;3.80;100290.00;;;;5027217;28;20212;-76
2021/01/31 02:42:59;;;;;;;13.48;6.20;;;;;3.80;100286.00;;;;5019356;28;20920;-76
2021/01/31 02:45:32;;;;;;;11.20;6.43;;;;;3.80;100292.00;;;;5026917;28;20673;-76
2021/01/31 02:48:03;;;;;;;12.40;6.45;;;;;3.80;100285.00;;;;5023515;28;20211;-76
2021/01/31 02:50:36;;;;;;;16.52;7.05;;;;;3.80;100287.00;;;;5022697;28;20651;-76
2021/01/31 02:53:06;;;;;;;11.15;5.90;;;;;3.80;100291.00;;;;5023983;28;20220;-75
2021/01/31 02:55:39;;;;;;;12.57;6.93;;;;;3.80;100289.00;;;;5008034;28;21109;-76
2021/01/31 02:58:10;;;;;;;12.80;6.57;;;;;3.80;100295.00;;;;5008569;28;20292;-76
2021/01/31 03:00:45;;;;;;;13.65;6.53;;;;;3.80;100306.00;;;;5006936;28;20204;-76
2021/01/31 03:03:16;;;;;;;13.63;6.75;;;;;3.80;100292.00;;;;5004840;28;20568;-75
2021/01/31 03:05:46;;;;;;;11.32;6.03;;;;;3.80;100284.00;;;;5007204;28;20201;-75
2021/01/31 03:08:17;;;;;;;14.77;6.85;;;;;3.70;100288.00;;;;5007492;28;20205;-76
2021/01/31 03:10:49;;;;;;;12.60;5.95;;;;;3.70;100287.00;;;;5008199;28;20201;-75
2021/01/31 03:13:20;;;;;;;12.30;6.45;;;;;3.70;100283.00;;;;5007875;28;20205;-75
2021/01/31 03:15:54;;;;;;;13.20;6.65;;;;;3.70;100286.00;;;;5007116;28;20217;-75
2021/01/31 03:18:25;;;;;;;13.85;6.50;;;;;3.70;100288.00;;;;5008070;28;20193;-75
2021/01/31 03:20:58;;;;;;;13.30;6.35;;;;;3.70;100293.00;;;;5008256;28;20209;-75
2021/01/31 03:23:33;;;;;;;11.98;6.07;;;;;3.70;100289.00;;;;5007903;28;20201;-76
2021/01/31 03:26:04;;;;;;;12.98;6.22;;;;;3.70;100287.00;;;;5008081;28;20197;-76
2021/01/31 03:28:30;;;;;;;12.50;6.72;;;;;3.70;100285.00;;;;5007875;28;20200;-76
2021/01/31 03:30:59;;;;;;;11.93;6.45;;;;;3.70;100284.00;;;;5007713;28;20205;-75
2021/01/31 03:33:30;;;;;;;13.93;6.50;;;;;3.70;100282.00;;;;5007990;28;20201;-75
2021/01/31 03:35:58;;;;;;;11.38;5.90;;;;;3.70;100288.00;;;;5006576;28;20237;-76
2021/01/31 03:38:29;;;;;;;13.40;6.97;;;;;3.60;100287.00;;;;5008201;28;20205;-75
2021/01/31 03:41:00;;;;;;;12.93;6.35;;;;;3.60;100290.00;;;;5006758;28;20201;-75
2021/01/31 03:43:27;;;;;;;11.93;5.90;;;;;3.60;100290.00;;;;5007618;28;20698;-76
2021/01/31 03:46:04;;;;;;;11.75;6.32;;;;;3.60;100288.00;;;;5007676;28;20698;-75
2021/01/31 03:48:36;;;;;;;14.57;6.78;;;;;3.60;100301.00;;;;5007461;28;20208;-75
2021/01/31 03:51:04;;;;;;;12.27;6.35;;;;;3.60;100302.00;;;;5006766;28;20736;-76
2021/01/31 03:53:31;;;;;;;13.52;6.88;;;;;3.60;100306.00;;;;5008278;28;20236;-76
2021/01/31 03:55:59;;;;;;;13.68;6.47;;;;;3.60;100303.00;;;;5008209;28;20644;-75
2021/01/31 03:58:27;;;;;;;12.77;6.55;;;;;3.60;100308.00;;;;5007308;28;20597;-76
2021/01/31 04:00:58;;;;;;;14.70;6.38;;;;;3.50;100304.00;;;;5008056;28;20300;-76
2021/01/31 04:03:30;;;;;;;14.25;6.68;;;;;3.50;100292.00;;;;5008823;28;20570;-75
2021/01/31 04:06:01;;;;;;;12.63;6.18;;;;;3.50;100291.00;;;;5006560;28;20201;-76
2021/01/31 04:08:32;;;;;;;11.75;5.72;;;;;3.50;100292.00;;;;5006896;28;20205;-75
2021/01/31 04:10:58;;;;;;;12.68;6.95;;;;;3.50;100291.00;;;;5008046;28;20208;-75
2021/01/31 04:13:25;;;;;;;11.82;5.95;;;;;3.50;100292.00;;;;5007683;28;20194;-75
2021/01/31 04:15:54;;;;;;;11.27;5.90;;;;;3.40;100290.00;;;;5007244;28;20237;-75
2021/01/31 04:18:23;;;;;;;13.75;6.38;;;;;3.40;100288.00;;;;5026564;28;20204;-75
2021/01/31 04:20:51;;;;;;;12.23;6.05;;;;;3.40;100293.00;;;;5012729;28;20204;-75
2021/01/31 04:23:18;;;;;;;13.35;6.35;;;;;3.40;100290.00;;;;5010841;28;20204;-75
2021/01/31 04:25:46;;;;;;;11.60;6.10;;;;;3.40;100288.00;;;;5023707;28;20196;-75
2021/01/31 04:28:17;;;;;;;11.98;6.53;;;;;3.30;100291.00;;;;5031114;28;20254;-75
2021/01/31 04:30:46;;;;;;;12.75;5.80;;;;;3.30;100293.00;;;;5027601;28;20585;-75
2021/01/31 04:33:14;;;;;;;12.70;6.03;;;;;3.30;100300.00;;;;5011107;28;20660;-76
2021/01/31 04:35:41;;;;;;;15.43;6.85;;;;;3.30;100286.00;;;;5012765;28;20220;-75
2021/01/31 04:38:08;;;;;;;12.73;6.38;;;;;3.30;100295.00;;;;5031213;28;20559;-75
2021/01/31 04:40:36;;;;;;;14.48;7.20;;;;;3.30;100291.00;;;;5029067;28;20737;-75
2021/01/31 04:43:09;;;;;;;12.60;6.60;;;;;3.20;100293.00;;;;5031012;28;20673;-75
2021/01/31 04:45:38;;;;;;;12.98;5.93;;;;;3.20;100298.00;;;;5031222;28;20196;-75
2021/01/31 04:48:17;;;;;;;14.15;6.82;;;;;3.20;100294.00;;;;5013502;28;20205;-75
2021/01/31 04:50:52;;;;;;;14.65;6.60;;;;;3.20;100293.00;;;;5022175;28;20192;-75
2021/01/31 04:53:36;;;;;;;13.45;6.50;;;;;3.10;100298.00;;;;5028792;28;20239;-75
2021/01/31 04:56:17;;;;;;;10.95;6.00;;;;;3.10;100298.00;;;;5018389;28;20612;-75
2021/01/31 04:58:48;;;;;;;13.93;6.55;;;;;3.10;100288.00;;;;5010267;28;21998;-75
2021/01/31 05:01:22;;;;;;;12.55;6.35;;;;;3.10;100296.00;;;;4998313;28;20244;-75
2021/01/31 05:03:54;;;;;;;13.65;6.53;;;;;3.10;100292.00;;;;5010785;28;20332;-75
2021/01/31 05:06:22;;;;;;;14.05;6.90;;;;;3.10;100300.00;;;;5009547;28;20233;-75
2021/01/31 05:08:49;;;;;;;16.10;6.97;;;;;3.10;100291.00;;;;5011120;28;20213;-75
2021/01/31 05:11:24;;;;;;;13.57;6.63;;;;;3.10;100291.00;;;;5008851;28;20205;-75
2021/01/31 05:14:00;;;;;;;13.50;6.30;;;;;3.10;100296.00;;;;5011093;28;20204;-75
2021/01/31 05:16:27;;;;;;;11.05;5.80;;;;;3.10;100296.00;;;;5012838;28;20325;-75
2021/01/31 05:18:58;;;;;;;12.38;5.93;;;;;3.10;100302.00;;;;5010920;28;20205;-75
2021/01/31 05:21:32;;;;;;;14.13;6.63;;;;;3.00;100303.00;;;;5017761;28;20200;-75
2021/01/31 05:24:02;;;;;;;16.85;6.68;;;;;3.10;100311.00;;;;5002449;28;20197;-75
2021/01/31 05:26:33;;;;;;;13.45;5.97;;;;;3.10;100313.00;;;;5010062;28;20208;-75
2021/01/31 05:29:04;;;;;;;14.40;6.57;;;;;3.00;100323.00;;;;5010777;28;20209;-75
2021/01/31 05:31:35;;;;;;;12.93;6.10;;;;;3.00;100318.00;;;;5023637;28;20248;-75
2021/01/31 05:34:02;;;;;;;13.57;7.00;;;;;3.10;100313.00;;;;5010943;28;20197;-75
2021/01/31 05:36:31;;;;;;;11.82;5.68;;;;;3.10;100321.00;;;;5028575;28;20227;-75
2021/01/31 05:38:58;;;;;;;11.80;5.55;;;;;3.10;100314.00;;;;5027551;28;20597;-75
2021/01/31 05:41:47;;;;;;;13.18;6.05;;;;;3.10;100320.00;;;;4990181;28;20201;-75
2021/01/31 05:44:27;;;;;;;12.23;6.13;;;;;3.00;100319.00;;;;4996203;28;20289;-75
2021/01/31 05:46:57;;;;;;;13.68;6.25;;;;;3.00;100313.00;;;;5009836;28;20286;-75
2021/01/31 05:49:34;;;;;;;14.60;6.88;;;;;3.00;100311.00;;;;5012998;28;20744;-75
2021/01/31 05:52:01;;;;;;;14.13;6.18;;;;;3.00;100305.00;;;;5029690;28;20256;-75
2021/01/31 05:54:32;;;;;;;12.63;6.05;;;;;3.00;100305.00;;;;5023153;28;20228;-75
2021/01/31 05:56:59;;;;;;;11.90;5.85;;;;;3.00;100307.00;;;;5009550;28;20667;-74
2021/01/31 05:59:38;;;;;;;15.75;6.68;;;;;2.90;100309.00;;;;5009131;28;20651;-75
2021/01/31 06:02:05;;;;;;;13.10;6.13;;;;;3.00;100319.00;;;;5010570;28;20283;-75
2021/01/31 06:04:32;;;;;;;12.98;6.10;;;;;3.00;100321.00;;;;5010772;28;20203;-75
2021/01/31 06:07:08;;;;;;;10.90;5.68;;;;;3.00;100336.00;;;;5009686;28;20216;-75
2021/01/31 06:09:41;;;;;;;14.45;6.78;;;;;3.00;100335.00;;;;5009772;28;20197;-74
2021/01/31 06:12:13;;;;;;;16.08;6.90;;;;;3.00;100330.00;;;;5009991;28;20726;-74
2021/01/31 06:14:43;;;;;;;13.23;6.18;;;;;3.00;100337.00;;;;5016030;28;20200;-75
2021/01/31 06:17:19;;;;;;;14.27;6.68;;;;;3.00;100324.00;;;;5015116;28;20224;-75
2021/01/31 06:19:46;;;;;;;12.30;6.20;;;;;3.00;100314.00;;;;5009033;28;20203;-75
2021/01/31 06:22:13;;;;;;;11.35;5.72;;;;;3.00;100310.00;;;;5015294;28;20227;-75
2021/01/31 06:24:47;;;;;;;13.65;6.25;;;;;3.00;100318.00;;;;5027604;28;20197;-75
2021/01/31 06:27:27;;;;;;;13.63;6.10;;;;;3.00;100310.00;;;;5029524;28;20196;-75
2021/01/31 06:30:10;;;;;;;15.55;7.20;;;;;2.90;100308.00;;;;5020957;28;20291;-75
2021/01/31 06:32:36;;;;;;;14.60;6.55;;;;;3.00;100307.00;;;;5009632;28;20320;-75
2021/01/31 06:35:07;;;;;;;14.18;6.43;;;;;2.90;100304.00;;;;5008672;28;20212;-74
2021/01/31 06:37:47;;;;;;;13.75;6.55;;;;;2.90;100311.00;;;;5009583;28;20205;-75
2021/01/31 06:40:30;;;;;;;16.05;7.05;;;;;2.80;100309.00;;;;5009958;28;20201;-74
2021/01/31 06:43:04;;;;;;;11.85;6.75;;;;;2.90;100309.00;;;;5008798;28;20201;-75
2021/01/31 06:45:37;;;;;;;13.45;5.97;;;;;2.80;100311.00;;;;5009193;28;20670;-75
2021/01/31 06:48:40;;;;;;;17.27;7.47;;;;;2.80;100307.00;;;;5004486;28;20216;-75
2021/01/31 06:51:31;;;;;;;14.63;7.05;;;;;2.80;100305.00;;;;4992682;28;20198;-75
2021/01/31 06:54:31;;;;;;;14.35;6.80;;;;;2.70;100298.00;;;;4999047;28;20224;-75
2021/01/31 06:57:33;;;;;;;12.13;6.30;;;;;2.70;100302.00;;;;5002542;28;20219;-75
2021/01/31 07:00:34;;;;;;;13.13;6.00;;;;;2.60;100302.00;;;;4998269;28;20191;-74
2021/01/31 07:03:29;;;;;;;13.27;6.47;;;;;2.60;100297.00;;;;4979398;28;20205;-74
2021/01/31 07:06:14;;;;;;;15.88;7.38;;;;;2.70;100304.00;;;;5004745;28;20201;-74
2021/01/31 07:08:59;;;;;;;13.00;6.40;;;;;2.60;100309.00;;;;5001367;28;20605;-75
2021/01/31 07:11:35;;;;;;;14.57;6.15;;;;;2.60;100313.00;;;;5010655;28;20232;-75
2021/01/31 07:14:33;;;;;;;14.98;6.25;;;;;2.60;100302.00;;;;5018844;28;20203;-75
2021/01/31 07:17:05;;;;;;;13.82;6.18;;;;;2.60;100305.00;;;;4982661;28;20218;-75
2021/01/31 07:19:39;;;;;;;14.30;6.32;;;;;2.60;100298.00;;;;5001314;28;20193;-75
2021/01/31 07:22:10;;;;;;;15.20;7.35;;;;;2.60;100295.00;;;;4999003;28;20253;-75
2021/01/31 07:24:45;;;;;;;12.60;6.72;;;;;2.60;100293.00;;;;4999349;28;20205;-75
2021/01/31 07:27:20;;;;;;;13.57;6.72;;;;;2.60;100300.00;;;;5001709;28;20204;-75
2021/01/31 07:30:00;;;;;;;16.70;7.53;;;;;2.60;100293.00;;;;5000237;28;20193;-75
2021/01/31 07:32:35;;;;;;;14.13;6.68;;;;;2.60;100305.00;;;;5000670;28;20231;-75
2021/01/31 07:35:08;;;;;;;12.73;6.45;;;;;2.60;100305.00;;;;5000541;28;20204;-75
2021/01/31 07:37:41;;;;;;;12.05;6.80;;;;;2.60;100307.00;;;;5000975;28;20698;-75
2021/01/31 07:40:13;;;;;;;15.70;6.97;;;;;2.60;100319.00;;;;5000906;28;20212;-75
2021/01/31 07:42:43;;;;;;;13.88;6.90;;;;;2.60;100319.00;;;;5003724;28;20193;-76
2021/01/31 07:45:14;;;;;;;14.02;6.78;;;;;2.60;100320.00;;;;5007992;28;20213;-75
2021/01/31 07:47:41;;;;;;;17.77;8.05;;;;;2.70;100335.00;;;;5009533;28;20197;-76
2021/01/31 07:50:21;;;;;;;18.30;8.13;;;;;2.60;100339.00;;;;5020229;28;20212;-75
2021/01/31 07:52:52;;;;;;;15.98;7.57;;;;;2.70;100350.00;;;;5015745;28;20573;-75
2021/01/31 07:55:33;;;;;;;17.15;8.50;;;;;2.70;100363.00;;;;5032424;28;20212;-75
2021/01/31 07:58:07;;;;;;;15.10;6.95;;;;;2.70;100364.00;;;;5042255;28;20250;-76
2021/01/31 08:00:41;;;;;;;13.02;6.22;;;;;2.80;100377.00;;;;5023251;28;20611;-75
2021/01/31 08:03:24;;;;;;;13.82;7.45;;;;;2.70;100376.00;;;;5046266;28;20204;-75
2021/01/31 08:05:57;;;;;;;14.60;7.45;;;;;2.80;100376.00;;;;5043622;28;20232;-75
2021/01/31 08:08:47;;;;;;;16.55;7.68;;;;;2.80;100376.00;;;;5046921;28;20200;-75
2021/01/31 08:11:55;;;;;;;13.10;7.07;;;;;2.90;100386.00;;;;5046807;28;20195;-75
2021/01/31 08:14:59;;;;;;;14.25;6.47;;;;;2.90;100392.00;;;;5051571;28;20257;-75
2021/01/31 08:17:39;;;;;;;15.20;7.38;;;;;3.00;100381.00;;;;5044234;28;20219;-75
2021/01/31 08:20:34;;;;;;;13.07;6.35;;;;;3.00;100374.00;;;;5051567;28;20195;-75
2021/01/31 08:23:04;;;;;;;13.23;6.32;;;;;3.10;100373.00;;;;5051229;28;20195;-76
2021/01/31 08:25:32;;;;;;;14.10;6.65;;;;;3.20;100374.00;;;;5050509;28;20196;-75
2021/01/31 08:28:18;;;;;;;16.23;7.85;;;;;3.20;100372.00;;;;5038957;28;20204;-75
2021/01/31 08:31:12;;;;;;;15.93;7.25;;;;;3.20;100366.00;;;;5045326;28;20571;-76
2021/01/31 08:33:40;;;;;;;13.10;6.13;;;;;3.40;100358.00;;;;5043725;28;20203;-75
2021/01/31 08:36:10;;;;;;;12.98;5.85;;;;;3.40;100364.00;;;;5032069;28;20339;-75
2021/01/31 08:38:45;;;;;;;12.85;6.72;;;;;3.50;100355.00;;;;5041476;28;20215;-75
2021/01/31 08:41:36;;;;;;;14.02;6.45;;;;;3.50;100360.00;;;;5051332;28;20256;-75
2021/01/31 08:44:36;;;;;;;13.48;6.45;;;;;3.50;100346.00;;;;5042685;28;20604;-75
2021/01/31 08:47:04;;;;;;;14.60;6.97;;;;;3.60;100348.00;;;;5027771;28;20219;-75
2021/01/31 08:49:31;;;;;;;12.38;6.40;;;;;3.70;100349.00;;;;5034488;28;20196;-75
2021/01/31 08:52:00;;;;;;;13.15;6.43;;;;;3.70;100342.00;;;;5040357;28;20204;-75
2021/01/31 08:54:28;;;;;;;15.25;6.60;;;;;3.70;100333.00;;;;5042264;28;20228;-75
2021/01/31 08:56:57;;;;;;;13.13;5.97;;;;;3.80;100333.00;;;;5036630;28;20224;-75
2021/01/31 08:59:27;;;;;;;12.00;6.35;;;;;3.80;100332.00;;;;5029075;28;20200;-74
2021/01/31 09:02:11;;;;;;;12.95;6.35;;;;;3.80;100314.00;;;;5016279;28;20204;-75
2021/01/31 09:04:39;;;;;;;11.45;6.35;;;;;3.90;100317.00;;;;5027941;28;20202;-75
2021/01/31 09:07:06;;;;;;;10.48;5.55;;;;;3.90;100312.00;;;;5025435;28;20199;-76
2021/01/31 09:09:37;;;;;;;12.90;6.30;;;;;3.90;100321.00;;;;5036469;28;20200;-76
2021/01/31 09:12:06;;;;;;;15.07;6.85;;;;;4.00;100306.00;;;;5027270;28;20200;-76
2021/01/31 09:14:36;;;;;;;13.30;6.07;;;;;4.00;100308.00;;;;5029031;28;20388;-76
2021/01/31 09:17:04;;;;;;;13.35;6.55;;;;;4.10;100308.00;;;;5026633;28;20223;-76
2021/01/31 09:19:31;;;;;;;14.63;7.05;;;;;4.10;100303.00;;;;5029918;28;21118;-73
2021/01/31 09:22:02;;;;;;;14.80;7.32;;;;;4.10;100302.00;;;;5030140;28;21023;-73
2021/01/31 09:24:33;;;;;;;16.20;7.50;;;;;4.20;100299.00;;;;5029969;28;20208;-73
2021/01/31 09:27:01;;;;;;;12.65;6.28;;;;;4.20;100309.00;;;;5029894;28;20208;-73
2021/01/31 09:29:31;;;;;;;11.05;6.10;;;;;4.20;100302.00;;;;5030203;28;20617;-73
2021/01/31 09:32:02;;;;;;;12.40;6.28;;;;;4.30;100307.00;;;;5029978;28;20660;-73
2021/01/31 09:34:29;;;;;;;11.48;5.90;;;;;4.30;100295.00;;;;5025034;28;20192;-73
2021/01/31 09:37:08;;;;;;;13.18;6.35;;;;;4.30;100307.00;;;;5029100;28;20220;-73
2021/01/31 09:39:37;;;;;;;11.73;6.47;;;;;4.40;100300.00;;;;5029117;28;20197;-74
2021/01/31 09:42:06;;;;;;;12.98;6.57;;;;;4.40;100300.00;;;;5029449;28;20203;-73
2021/01/31 09:44:36;;;;;;;11.48;5.90;;;;;4.40;100296.00;;;;5030003;28;20257;-74
2021/01/31 09:47:04;;;;;;;14.52;6.20;;;;;4.50;100295.00;;;;5029302;28;20250;-74
2021/01/31 09:49:32;;;;;;;11.32;6.18;;;;;4.50;100294.00;;;;5029588;28;20646;-73
2021/01/31 09:52:06;;;;;;;15.25;6.60;;;;;4.50;100293.00;;;;5026849;28;20201;-74
2021/01/31 09:54:35;;;;;;;11.60;5.90;;;;;4.60;100298.00;;;;5027202;28;20239;-74
2021/01/31 09:57:06;;;;;;;11.88;5.78;;;;;4.70;100296.00;;;;5022565;28;20224;-74
2021/01/31 09:59:35;;;;;;;12.23;6.30;;;;;4.80;100285.00;;;;5027533;28;20206;-75
2021/01/31 10:02:05;;;;;;;13.35;6.75;;;;;4.80;100287.00;;;;5030835;28;20296;-74
2021/01/31 10:04:33;;;;;;;14.02;6.78;;;;;4.90;100285.00;;;;5045922;28;20195;-74
2021/01/31 10:07:07;;;;;;;14.10;6.57;;;;;4.90;100284.00;;;;5049458;28;20199;-74
2021/01/31 10:09:35;;;;;;;13.52;6.90;;;;;5.00;100282.00;;;;5049424;28;20602;-75
2021/01/31 10:12:26;;;;;;;14.65;6.88;;;;;5.00;100278.00;;;;5046140;28;20207;-75
2021/01/31 10:14:55;;;;;;;8.70;4.80;;;;;5.10;100282.00;;;;5043303;28;20191;-76
2021/01/31 10:17:37;;;;;;;10.50;5.15;;;;;5.10;100276.00;;;;5046443;28;20230;-75
2021/01/31 10:20:28;;;;;;;12.43;5.95;;;;;5.20;100280.00;;;;5026281;28;20204;-76
2021/01/31 10:22:56;;;;;;;13.60;6.85;;;;;5.30;100273.00;;;;5028327;28;20215;-75
2021/01/31 10:25:23;;;;;;;14.02;6.80;;;;;5.30;100264.00;;;;5028958;28;20200;-76
2021/01/31 10:27:51;;;;;;;13.55;6.95;;;;;5.40;100259.00;;;;5028332;28;20201;-76
2021/01/31 10:30:22;;;;;;;12.88;6.97;;;;;5.40;100256.00;;;;5029093;28;20662;-76
2021/01/31 10:32:49;;;;;;;13.25;7.10;;;;;5.50;100252.00;;;;5029190;28;20201;-76
2021/01/31 10:35:30;;;;;;;12.13;5.95;;;;;5.50;100253.00;;;;5028737;28;20204;-76
2021/01/31 10:37:58;;;;;;;13.07;6.50;;;;;5.60;100253.00;;;;5023677;28;20200;-76
2021/01/31 10:40:25;;;;;;;11.57;5.72;;;;;5.70;100252.00;;;;5038177;28;20195;-75
2021/01/31 10:42:53;;;;;;;13.68;7.10;;;;;5.70;100260.00;;;;5035390;28;20199;-76
2021/01/31 10:45:24;;;;;;;12.68;6.53;;;;;5.80;100253.00;;;;5028537;28;20208;-76
2021/01/31 10:47:51;;;;;;;10.95;5.88;;;;;5.80;100249.00;;;;5028804;28;20200;-77
2021/01/31 10:50:19;;;;;;;10.80;6.13;;;;;5.90;100259.00;;;;5027729;28;20200;-76
2021/01/31 10:52:48;;;;;;;10.93;6.30;;;;;6.00;100243.00;;;;5027799;28;20204;-76
2021/01/31 10:55:15;;;;;;;10.55;5.70;;;;;6.00;100240.00;;;;5028735;28;20216;-76
2021/01/31 10:57:41;;;;;;;11.60;6.28;;;;;6.00;100236.00;;;;5028204;28;20227;-77
2021/01/31 11:00:13;;;;;;;10.85;6.05;;;;;6.10;100232.00;;;;5019292;28;20658;-77
2021/01/31 11:02:40;;;;;;;11.80;6.82;;;;;6.10;100232.00;;;;5028336;28;20192;-77
2021/01/31 11:05:08;;;;;;;12.35;6.68;;;;;6.20;100223.00;;;;5028652;28;20561;-77
2021/01/31 11:07:35;;;;;;;12.20;6.25;;;;;6.20;100219.00;;;;5030168;28;20227;-77
2021/01/31 11:10:02;;;;;;;11.88;6.50;;;;;6.30;100223.00;;;;5048457;28;20207;-77
2021/01/31 11:12:29;;;;;;;9.68;5.68;;;;;6.30;100221.00;;;;5038873;28;20215;-77
2021/01/31 11:14:56;;;;;;;12.40;6.68;;;;;6.40;100224.00;;;;5028226;28;20204;-77
2021/01/31 11:17:24;;;;;;;11.98;6.63;;;;;6.50;100203.00;;;;5026644;28;20282;-77
2021/01/31 11:19:50;;;;;;;10.35;6.03;;;;;6.50;100203.00;;;;5032757;28;20257;-77
2021/01/31 11:22:17;;;;;;;11.18;6.13;;;;;6.60;100199.00;;;;5047825;28;20200;-77
2021/01/31 11:24:45;;;;;;;11.25;5.65;;;;;6.60;100196.00;;;;5028442;28;20204;-78
2021/01/31 11:27:12;;;;;;;10.85;5.82;;;;;6.70;100206.00;;;;5028772;28;20200;-77
2021/01/31 11:29:38;;;;;;;10.55;5.70;;;;;6.80;100190.00;;;;5031277;28;20681;-77
2021/01/31 11:32:06;;;;;;;10.90;6.07;;;;;6.90;100186.00;;;;5032046;28;20203;-77
2021/01/31 11:34:34;;;;;;;11.18;6.28;;;;;6.90;100176.00;;;;5025827;28;20231;-77
2021/01/31 11:37:01;;;;;;;12.98;6.75;;;;;7.00;100179.00;;;;5027941;28;20593;-77
2021/01/31 11:39:28;;;;;;;11.98;6.88;;;;;7.10;100166.00;;;;5040189;28;20215;-77
2021/01/31 11:41:56;;;;;;;11.93;6.07;;;;;7.20;100164.00;;;;5031504;28;21080;-78
2021/01/31 11:44:23;;;;;;;11.20;5.72;;;;;7.20;100154.00;;;;5024869;28;20196;-77
2021/01/31 11:46:50;;;;;;;10.07;5.80;;;;;7.30;100153.00;;;;5032116;28;20196;-77
2021/01/31 11:49:16;;;;;;;10.77;5.75;;;;;7.40;100147.00;;;;5016647;28;20208;-77
2021/01/31 11:51:44;;;;;;;10.65;6.10;;;;;7.40;100147.00;;;;5032159;28;20196;-78
2021/01/31 11:54:11;;;;;;;9.73;5.65;;;;;7.50;100146.00;;;;5030488;28;20247;-78
2021/01/31 11:56:38;;;;;;;11.23;6.05;;;;;7.60;100144.00;;;;5030645;28;20228;-77
2021/01/31 11:59:05;;;;;;;11.48;6.47;;;;;7.60;100140.00;;;;5030084;28;20201;-78
2021/01/31 12:01:31;;;;;;;11.13;5.45;;;;;7.70;100128.00;;;;5030919;28;20650;-78
2021/01/31 12:03:58;;;;;;;10.15;5.80;;;;;7.80;100125.00;;;;5012665;28;20197;-77
2021/01/31 12:06:25;;;;;;;11.27;6.68;;;;;7.80;100121.00;;;;5024311;28;20208;-77
2021/01/31 12:08:52;;;;;;;9.80;5.03;;;;;7.90;100123.00;;;;5026563;28;20197;-77
2021/01/31 12:11:19;;;;;;;12.20;6.43;;;;;8.00;100120.00;;;;5026329;28;20208;-77
2021/01/31 12:13:46;;;;;;;10.70;6.05;;;;;8.00;100106.00;;;;5031976;28;20240;-77
2021/01/31 12:16:12;;;;;;;10.20;5.20;;;;;8.10;100096.00;;;;5035348;28;20239;-78
2021/01/31 12:18:39;;;;;;;9.70;5.40;;;;;8.10;100094.00;;;;5028461;28;20196;-77
2021/01/31 12:21:06;;;;;;;9.20;5.88;;;;;8.20;100088.00;;;;5043004;28;20578;-76
2021/01/31 12:23:32;;;;;;;10.35;6.05;;;;;8.30;100082.00;;;;5034993;28;20790;-77
2021/01/31 12:26:00;;;;;;;8.60;5.32;;;;;8.30;100073.00;;;;5046876;28;20218;-77
2021/01/31 12:28:27;;;;;;;10.10;5.80;;;;;8.40;100068.00;;;;5034285;28;20200;-76
2021/01/31 12:30:54;;;;;;;10.07;5.35;;;;;8.50;100061.00;;;;5029847;28;20269;-76